createdAt,value
2019-05-12T00:00:35.215Z,0.00
2019-05-12T00:01:35.236Z,0.00
2019-05-12T00:02:35.174Z,0.00
2019-05-12T00:03:35.155Z,0.00
2019-05-12T00:04:35.185Z,0.00
2019-05-12T00:05:35.226Z,0.00
2019-05-12T00:06:35.106Z,0.00
2019-05-12T00:07:35.135Z,0.00
2019-05-12T00:08:35.199Z,0.00
2019-05-12T00:09:35.148Z,0.00
2019-05-12T00:10:35.120Z,0.00
2019-05-12T00:11:35.100Z,0.00
2019-05-12T00:12:35.071Z,0.00
2019-05-12T00:13:35.051Z,0.00
2019-05-12T00:14:35.074Z,0.00
2019-05-12T00:15:35.015Z,0.00
2019-05-12T00:16:35.047Z,0.00
2019-05-12T00:17:35.033Z,0.00
2019-05-12T00:18:35.064Z,0.00
2019-05-12T00:19:35.019Z,0.00
2019-05-12T00:20:34.976Z,0.00
2019-05-12T00:21:37.614Z,0.00
2019-05-12T00:22:34.958Z,0.00
2019-05-12T00:23:34.952Z,0.00
2019-05-12T00:24:34.966Z,0.00
2019-05-12T00:25:34.949Z,0.00
2019-05-12T00:26:34.913Z,0.00
2019-05-12T00:27:34.931Z,0.00
2019-05-12T00:28:34.919Z,0.00
2019-05-12T00:29:34.897Z,0.00
2019-05-12T00:30:34.893Z,0.00
2019-05-12T00:31:34.913Z,0.00
2019-05-12T00:32:34.939Z,0.00
2019-05-12T00:33:34.818Z,0.00
2019-05-12T00:34:34.880Z,0.00
2019-05-12T00:35:34.820Z,0.00
2019-05-12T00:36:34.807Z,0.00
2019-05-12T00:37:34.911Z,0.00
2019-05-12T00:38:34.824Z,0.00
2019-05-12T00:39:34.835Z,0.00
2019-05-12T00:40:34.784Z,0.00
2019-05-12T00:41:34.729Z,0.00
2019-05-12T00:42:34.760Z,0.00
2019-05-12T00:43:34.753Z,0.00
2019-05-12T00:44:34.739Z,0.00
2019-05-12T00:45:34.749Z,0.00
2019-05-12T00:46:34.711Z,0.00
2019-05-12T00:47:34.686Z,0.00
2019-05-12T00:48:34.702Z,0.00
2019-05-12T00:49:34.743Z,0.00
2019-05-12T00:50:34.683Z,0.00
2019-05-12T00:51:34.634Z,0.00
2019-05-12T00:52:34.627Z,0.00
2019-05-12T00:53:39.981Z,0.00
2019-05-12T00:54:37.540Z,0.00
2019-05-12T00:55:34.606Z,0.00
2019-05-12T00:56:34.608Z,0.00
2019-05-12T00:57:34.568Z,0.00
2019-05-12T00:58:34.556Z,0.00
2019-05-12T00:59:34.581Z,0.00
2019-05-12T01:00:34.538Z,0.00
2019-05-12T01:01:34.528Z,0.00
2019-05-12T01:02:34.511Z,0.00
2019-05-12T01:03:34.506Z,0.00
2019-05-12T01:04:34.518Z,0.00
2019-05-12T01:05:34.482Z,0.00
2019-05-12T01:06:34.457Z,0.00
2019-05-12T01:07:34.465Z,0.00
2019-05-12T01:08:34.466Z,0.00
2019-05-12T01:09:34.462Z,0.00
2019-05-12T01:10:34.423Z,0.00
2019-05-12T01:11:34.417Z,0.00
2019-05-12T01:12:34.404Z,0.00
2019-05-12T01:13:34.396Z,0.00
2019-05-12T01:14:34.501Z,0.00
2019-05-12T01:15:34.377Z,0.00
2019-05-12T01:16:34.368Z,0.00
2019-05-12T01:17:34.411Z,0.00
2019-05-12T01:18:34.344Z,0.00
2019-05-12T01:19:34.365Z,0.00
2019-05-12T01:20:34.370Z,0.00
2019-05-12T01:21:34.348Z,0.00
2019-05-12T01:22:34.279Z,0.00
2019-05-12T01:23:34.293Z,0.00
2019-05-12T01:24:34.261Z,0.00
2019-05-12T01:25:34.279Z,0.00
2019-05-12T01:26:34.260Z,0.00
2019-05-12T01:27:34.244Z,0.00
2019-05-12T01:28:34.236Z,0.00
2019-05-12T01:29:34.213Z,0.00
2019-05-12T01:30:34.242Z,0.00
2019-05-12T01:31:34.197Z,0.00
2019-05-12T01:32:34.201Z,0.00
2019-05-12T01:33:34.184Z,0.00
2019-05-12T01:34:34.161Z,0.00
2019-05-12T01:35:34.193Z,0.00
2019-05-12T01:36:34.139Z,0.00
2019-05-12T01:37:34.157Z,0.00
2019-05-12T01:38:34.174Z,0.00
2019-05-12T01:39:34.140Z,0.00
2019-05-12T01:40:34.131Z,0.00
2019-05-12T01:41:34.093Z,0.00
2019-05-12T01:42:34.085Z,0.00
2019-05-12T01:43:34.075Z,0.00
2019-05-12T01:44:34.102Z,0.00
2019-05-12T01:45:34.045Z,0.00
2019-05-12T01:46:34.057Z,0.00
2019-05-12T01:47:34.029Z,0.00
2019-05-12T01:48:34.016Z,0.00
2019-05-12T01:49:34.006Z,0.00
2019-05-12T01:50:34.041Z,0.00
2019-05-12T01:51:33.966Z,0.00
2019-05-12T01:52:33.983Z,0.00
2019-05-12T01:53:33.945Z,0.00
2019-05-12T01:54:33.985Z,0.00
2019-05-12T01:55:33.989Z,0.00
2019-05-12T01:56:33.953Z,0.00
2019-05-12T01:57:33.902Z,0.00
2019-05-12T01:58:33.904Z,0.00
2019-05-12T01:59:33.894Z,0.00
2019-05-12T02:00:33.928Z,0.00
2019-05-12T02:01:33.874Z,0.00
2019-05-12T02:02:33.842Z,0.00
2019-05-12T02:03:33.845Z,0.00
2019-05-12T02:04:33.884Z,0.00
2019-05-12T02:05:33.888Z,0.00
2019-05-12T02:06:33.818Z,0.00
2019-05-12T02:07:33.809Z,0.00
2019-05-12T02:08:33.800Z,0.00
2019-05-12T02:09:33.792Z,0.00
2019-05-12T02:10:33.824Z,0.00
2019-05-12T02:11:33.759Z,0.00
2019-05-12T02:12:33.767Z,0.00
2019-05-12T02:13:33.759Z,0.00
2019-05-12T02:14:33.734Z,0.00
2019-05-12T02:15:33.757Z,0.00
2019-05-12T02:16:33.715Z,0.00
2019-05-12T02:17:33.707Z,0.00
2019-05-12T02:18:33.727Z,0.00
2019-05-12T02:19:33.706Z,0.00
2019-05-12T02:20:33.719Z,0.00
2019-05-12T02:21:33.663Z,0.00
2019-05-12T02:22:33.667Z,0.00
2019-05-12T02:23:33.657Z,0.00
2019-05-12T02:24:33.635Z,0.00
2019-05-12T02:25:33.647Z,0.00
2019-05-12T02:26:33.611Z,0.00
2019-05-12T02:27:33.588Z,0.00
2019-05-12T02:28:33.634Z,0.00
2019-05-12T02:29:33.592Z,0.00
2019-05-12T02:30:33.680Z,0.00
2019-05-12T02:31:33.589Z,0.00
2019-05-12T02:32:47.302Z,0.00
2019-05-12T02:33:35.595Z,0.00
2019-05-12T02:34:34.970Z,0.00
2019-05-12T02:35:35.432Z,0.00
2019-05-12T02:36:34.146Z,0.00
2019-05-12T02:37:35.817Z,0.00
2019-05-12T02:38:33.481Z,0.00
2019-05-12T02:39:35.224Z,0.00
2019-05-12T02:40:34.705Z,0.00
2019-05-12T02:41:34.520Z,0.00
2019-05-12T02:42:34.911Z,0.00
2019-05-12T02:43:34.779Z,0.00
2019-05-12T02:44:34.703Z,0.00
2019-05-12T02:45:35.541Z,0.00
2019-05-12T02:46:34.824Z,0.00
2019-05-12T02:47:34.736Z,0.00
2019-05-12T02:48:35.670Z,0.00
2019-05-12T02:49:34.890Z,0.00
2019-05-12T02:50:35.229Z,0.00
2019-05-12T02:51:35.130Z,0.00
2019-05-12T02:52:34.754Z,0.00
2019-05-12T02:53:35.097Z,0.00
2019-05-12T02:54:50.857Z,0.00
2019-05-12T02:55:35.026Z,0.00
2019-05-12T02:56:35.615Z,0.00
2019-05-12T02:57:34.346Z,0.00
2019-05-12T02:58:34.606Z,0.00
2019-05-12T02:59:34.732Z,0.00
2019-05-12T03:00:58.977Z,0.00
2019-05-12T03:01:34.738Z,0.00
2019-05-12T03:02:34.745Z,0.00
2019-05-12T03:03:35.228Z,0.00
2019-05-12T03:04:34.976Z,0.00
2019-05-12T03:05:35.057Z,0.00
2019-05-12T03:06:36.147Z,0.00
2019-05-12T03:07:34.625Z,0.00
2019-05-12T03:08:34.884Z,0.00
2019-05-12T03:09:35.222Z,0.00
2019-05-12T03:10:35.419Z,0.00
2019-05-12T03:11:35.483Z,0.00
2019-05-12T03:12:34.401Z,0.00
2019-05-12T03:13:34.588Z,0.00
2019-05-12T03:14:39.340Z,0.00
2019-05-12T03:15:36.818Z,0.00
2019-05-12T03:16:34.962Z,0.00
2019-05-12T03:17:35.502Z,0.00
2019-05-12T03:18:34.770Z,0.00
2019-05-12T03:19:34.580Z,0.00
2019-05-12T03:20:35.194Z,0.00
2019-05-12T03:21:35.173Z,0.00
2019-05-12T03:22:35.359Z,0.00
2019-05-12T03:23:35.261Z,0.00
2019-05-12T03:24:34.227Z,0.00
2019-05-12T03:25:35.614Z,0.00
2019-05-12T03:26:34.690Z,0.00
2019-05-12T03:27:35.108Z,0.00
2019-05-12T03:28:35.619Z,0.00
2019-05-12T03:29:34.339Z,0.00
2019-05-12T03:30:38.113Z,0.00
2019-05-12T03:31:40.318Z,0.00
2019-05-12T03:32:37.684Z,0.00
2019-05-12T03:33:36.045Z,0.00
2019-05-12T03:34:38.172Z,0.00
2019-05-12T03:35:40.539Z,0.00
2019-05-12T03:36:41.047Z,0.00
2019-05-12T03:37:35.309Z,0.00
2019-05-12T03:38:35.978Z,0.00
2019-05-12T03:39:34.352Z,0.00
2019-05-12T03:40:37.518Z,0.00
2019-05-12T03:41:34.834Z,0.00
2019-05-12T03:42:35.436Z,0.00
2019-05-12T03:43:35.093Z,0.00
2019-05-12T03:44:35.186Z,0.00
2019-05-12T03:45:35.434Z,0.00
2019-05-12T03:46:35.267Z,0.00
2019-05-12T03:47:35.579Z,0.00
2019-05-12T03:48:34.902Z,0.00
2019-05-12T03:49:34.795Z,0.00
2019-05-12T03:50:35.389Z,0.00
2019-05-12T03:51:34.993Z,0.00
2019-05-12T03:52:34.926Z,0.00
2019-05-12T03:53:35.250Z,0.00
2019-05-12T03:54:34.926Z,0.00
2019-05-12T03:55:37.998Z,0.00
2019-05-12T03:56:34.579Z,5.62
2019-05-12T03:57:34.511Z,5.62
2019-05-12T03:58:34.600Z,5.62
2019-05-12T03:59:34.782Z,5.62
2019-05-12T04:00:35.940Z,5.62
2019-05-12T04:01:35.881Z,5.62
2019-05-12T04:02:34.038Z,5.62
2019-05-12T04:03:34.541Z,5.62
2019-05-12T04:04:34.745Z,5.62
2019-05-12T04:05:34.901Z,5.62
2019-05-12T04:06:34.576Z,5.62
2019-05-12T04:07:34.451Z,11.25
2019-05-12T04:08:34.669Z,11.25
2019-05-12T04:09:34.821Z,11.25
2019-05-12T04:10:35.455Z,11.25
2019-05-12T04:11:35.411Z,11.25
2019-05-12T04:12:34.615Z,5.62
2019-05-12T04:13:34.134Z,5.62
2019-05-12T04:14:34.534Z,5.62
2019-05-12T04:15:34.798Z,5.62
2019-05-12T04:16:35.816Z,11.25
2019-05-12T04:17:34.965Z,11.25
2019-05-12T04:18:34.825Z,11.25
2019-05-12T04:19:34.386Z,11.25
2019-05-12T04:20:35.616Z,11.25
2019-05-12T04:21:35.051Z,16.88
2019-05-12T04:22:35.189Z,16.88
2019-05-12T04:23:34.852Z,16.88
2019-05-12T04:24:35.632Z,16.88
2019-05-12T04:25:47.833Z,16.88
2019-05-12T04:26:36.270Z,16.88
2019-05-12T04:27:34.772Z,16.88
2019-05-12T04:28:35.149Z,16.88
2019-05-12T04:29:34.869Z,22.50
2019-05-12T04:30:35.133Z,22.50
2019-05-12T04:31:34.647Z,22.50
2019-05-12T04:32:35.463Z,22.50
2019-05-12T04:33:34.696Z,22.50
2019-05-12T04:34:34.256Z,28.12
2019-05-12T04:35:34.917Z,28.12
2019-05-12T04:36:35.177Z,28.12
2019-05-12T04:37:34.983Z,28.12
2019-05-12T04:38:35.247Z,28.12
2019-05-12T04:39:34.131Z,28.12
2019-05-12T04:40:35.348Z,28.12
2019-05-12T04:41:35.071Z,28.12
2019-05-12T04:42:34.672Z,33.75
2019-05-12T04:43:35.106Z,33.75
2019-05-12T04:44:34.700Z,33.75
2019-05-12T04:45:34.698Z,33.75
2019-05-12T04:46:34.700Z,33.75
2019-05-12T04:47:34.944Z,28.12
2019-05-12T04:48:35.875Z,28.12
2019-05-12T04:49:34.600Z,33.75
2019-05-12T04:50:35.339Z,33.75
2019-05-12T04:51:34.951Z,33.75
2019-05-12T04:52:34.892Z,28.12
2019-05-12T04:53:34.894Z,33.75
2019-05-12T04:54:35.324Z,28.12
2019-05-12T04:55:35.239Z,28.12
2019-05-12T04:56:35.444Z,33.75
2019-05-12T04:57:34.675Z,33.75
2019-05-12T04:58:34.819Z,33.75
2019-05-12T04:59:34.494Z,33.75
2019-05-12T05:00:34.805Z,33.75
2019-05-12T05:01:34.642Z,33.75
2019-05-12T05:02:35.091Z,33.75
2019-05-12T05:03:34.748Z,33.75
2019-05-12T05:04:34.610Z,33.75
2019-05-12T05:05:35.019Z,33.75
2019-05-12T05:06:34.186Z,33.75
2019-05-12T05:07:31.868Z,33.75
2019-05-12T05:08:34.653Z,33.75
2019-05-12T05:09:34.814Z,39.38
2019-05-12T05:10:34.109Z,39.38
2019-05-12T05:11:34.355Z,39.38
2019-05-12T05:12:34.326Z,33.75
2019-05-12T05:13:36.633Z,33.75
2019-05-12T05:14:34.037Z,39.38
2019-05-12T05:15:34.826Z,39.38
2019-05-12T05:16:34.365Z,39.38
2019-05-12T05:17:34.519Z,39.38
2019-05-12T05:18:31.722Z,39.38
2019-05-12T05:19:33.782Z,39.38
2019-05-12T05:20:31.707Z,39.38
2019-05-12T05:21:31.683Z,39.38
2019-05-12T05:22:33.352Z,39.38
2019-05-12T05:23:33.547Z,39.38
2019-05-12T05:24:33.809Z,33.75
2019-05-12T05:25:33.942Z,33.75
2019-05-12T05:26:36.409Z,33.75
2019-05-12T05:27:34.038Z,39.38
2019-05-12T05:28:33.848Z,39.38
2019-05-12T05:29:33.562Z,39.38
2019-05-12T05:30:33.858Z,39.38
2019-05-12T05:31:33.707Z,39.38
2019-05-12T05:32:33.736Z,45.00
2019-05-12T05:33:33.857Z,45.00
2019-05-12T05:34:31.538Z,50.62
2019-05-12T05:35:37.172Z,45.00
2019-05-12T05:36:34.566Z,56.25
2019-05-12T05:37:36.913Z,45.00
2019-05-12T05:38:34.311Z,45.00
2019-05-12T05:39:35.390Z,56.25
2019-05-12T05:40:32.467Z,45.00
2019-05-12T05:41:31.461Z,56.25
2019-05-12T05:42:33.417Z,39.38
2019-05-12T05:43:33.325Z,39.38
2019-05-12T05:44:36.326Z,45.00
2019-05-12T05:45:34.691Z,45.00
2019-05-12T05:46:33.689Z,50.62
2019-05-12T05:47:33.473Z,50.62
2019-05-12T05:48:34.547Z,45.00
2019-05-12T05:49:31.373Z,56.25
2019-05-12T05:50:31.362Z,56.25
2019-05-12T05:51:33.515Z,45.00
2019-05-12T05:52:34.159Z,45.00
2019-05-12T05:53:33.571Z,56.25
2019-05-12T05:54:35.205Z,56.25
2019-05-12T05:55:33.914Z,50.62
2019-05-12T05:56:39.715Z,50.62
2019-05-12T05:57:33.659Z,50.62
2019-05-12T05:58:33.787Z,39.38
2019-05-12T05:59:35.883Z,39.38
2019-05-12T06:00:34.716Z,39.38
2019-05-12T06:01:34.503Z,45.00
2019-05-12T06:02:39.426Z,61.88
2019-05-12T06:03:33.904Z,61.88
2019-05-12T06:04:31.247Z,61.88
2019-05-12T06:05:31.198Z,61.88
2019-05-12T06:06:31.197Z,61.88
2019-05-12T06:07:37.664Z,61.88
2019-05-12T06:08:33.759Z,61.88
2019-05-12T06:09:31.157Z,56.25
2019-05-12T06:10:36.113Z,56.25
2019-05-12T06:11:34.367Z,45.00
2019-05-12T06:12:33.012Z,45.00
2019-05-12T06:13:33.983Z,56.25
2019-05-12T06:14:31.135Z,56.25
2019-05-12T06:15:38.165Z,56.25
2019-05-12T06:16:34.093Z,56.25
2019-05-12T06:17:31.084Z,61.88
2019-05-12T06:18:33.265Z,61.88
2019-05-12T06:19:31.051Z,56.25
2019-05-12T06:20:31.040Z,39.38
2019-05-12T06:21:36.234Z,39.38
2019-05-12T06:22:34.249Z,39.38
2019-05-12T06:23:34.811Z,50.62
2019-05-12T06:24:33.489Z,45.00
2019-05-12T06:25:44.608Z,61.88
2019-05-12T06:26:35.387Z,67.50
2019-05-12T06:27:32.862Z,67.50
2019-05-12T06:28:36.240Z,67.50
2019-05-12T06:29:33.334Z,67.50
2019-05-12T06:30:37.478Z,73.12
2019-05-12T06:31:33.401Z,73.12
2019-05-12T06:32:30.913Z,73.12
2019-05-12T06:33:33.043Z,78.75
2019-05-12T06:34:34.173Z,78.75
2019-05-12T06:35:36.361Z,73.12
2019-05-12T06:36:34.045Z,84.38
2019-05-12T06:37:30.861Z,84.38
2019-05-12T06:38:35.556Z,84.38
2019-05-12T06:39:34.227Z,84.38
2019-05-12T06:40:36.619Z,73.12
2019-05-12T06:41:33.622Z,73.12
2019-05-12T06:42:30.797Z,67.50
2019-05-12T06:43:35.291Z,61.88
2019-05-12T06:44:33.488Z,50.62
2019-05-12T06:45:34.080Z,50.62
2019-05-12T06:46:34.089Z,45.00
2019-05-12T06:47:30.760Z,50.62
2019-05-12T06:48:30.731Z,56.25
2019-05-12T06:49:30.761Z,73.12
2019-05-12T06:50:34.471Z,73.12
2019-05-12T06:51:33.817Z,67.50
2019-05-12T06:52:30.708Z,73.12
2019-05-12T06:53:31.137Z,73.12
2019-05-12T06:54:30.661Z,67.50
2019-05-12T06:55:34.493Z,61.88
2019-05-12T06:56:34.034Z,67.50
2019-05-12T06:57:30.635Z,61.88
2019-05-12T06:58:32.123Z,61.88
2019-05-12T06:59:30.609Z,67.50
2019-05-12T07:00:32.134Z,67.50
2019-05-12T07:01:30.597Z,67.50
2019-05-12T07:02:37.118Z,67.50
2019-05-12T07:03:34.929Z,73.12
2019-05-12T07:04:33.721Z,67.50
2019-05-12T07:05:33.778Z,56.25
2019-05-12T07:06:33.754Z,50.62
2019-05-12T07:07:35.609Z,45.00
2019-05-12T07:08:34.519Z,45.00
2019-05-12T07:09:33.269Z,45.00
2019-05-12T07:10:43.497Z,50.62
2019-05-12T07:11:42.412Z,56.25
2019-05-12T07:12:36.601Z,50.62
2019-05-12T07:13:31.477Z,50.62
2019-05-12T07:14:30.439Z,56.25
2019-05-12T07:15:35.853Z,56.25
2019-05-12T07:16:33.920Z,56.25
2019-05-12T07:17:37.190Z,56.25
2019-05-12T07:18:32.849Z,50.62
2019-05-12T07:19:33.604Z,50.62
2019-05-12T07:20:35.338Z,50.62
2019-05-12T07:21:33.573Z,50.62
2019-05-12T07:22:31.793Z,50.62
2019-05-12T07:23:33.395Z,50.62
2019-05-12T07:24:30.355Z,56.25
2019-05-12T07:25:31.537Z,61.88
2019-05-12T07:26:30.312Z,67.50
2019-05-12T07:27:36.766Z,67.50
2019-05-12T07:28:36.189Z,73.12
2019-05-12T07:29:31.314Z,73.12
2019-05-12T07:30:32.628Z,61.88
2019-05-12T07:31:30.257Z,67.50
2019-05-12T07:32:30.239Z,61.88
2019-05-12T07:33:32.792Z,67.50
2019-05-12T07:34:33.318Z,67.50
2019-05-12T07:35:30.203Z,67.50
2019-05-12T07:36:30.194Z,50.62
2019-05-12T07:37:30.193Z,67.50
2019-05-12T07:38:30.178Z,67.50
2019-05-12T07:39:30.178Z,67.50
2019-05-12T07:40:32.322Z,61.88
2019-05-12T07:41:30.138Z,50.62
2019-05-12T07:42:31.548Z,56.25
2019-05-12T07:43:30.119Z,50.62
2019-05-12T07:44:34.294Z,50.62
2019-05-12T07:45:31.095Z,50.62
2019-05-12T07:46:30.098Z,61.88
2019-05-12T07:47:30.076Z,67.50
2019-05-12T07:48:30.083Z,73.12
2019-05-12T07:49:36.931Z,73.12
2019-05-12T07:50:31.046Z,73.12
2019-05-12T07:51:35.168Z,78.75
2019-05-12T07:52:33.625Z,73.12
2019-05-12T07:53:30.009Z,78.75
2019-05-12T07:54:37.338Z,67.50
2019-05-12T07:55:30.992Z,78.75
2019-05-12T07:56:32.917Z,56.25
2019-05-12T07:57:34.505Z,50.62
2019-05-12T07:58:33.211Z,50.62
2019-05-12T07:59:35.659Z,67.50
2019-05-12T08:00:30.946Z,56.25
2019-05-12T08:01:29.917Z,61.88
2019-05-12T08:02:31.798Z,73.12
2019-05-12T08:03:29.907Z,73.12
2019-05-12T08:04:31.667Z,61.88
2019-05-12T08:05:33.492Z,61.88
2019-05-12T08:06:32.623Z,67.50
2019-05-12T08:07:30.857Z,67.50
2019-05-12T08:08:29.840Z,61.88
2019-05-12T08:09:32.443Z,56.25
2019-05-12T08:10:30.818Z,50.62
2019-05-12T08:11:34.705Z,61.88
2019-05-12T08:12:30.811Z,67.50
2019-05-12T08:13:31.117Z,73.12
2019-05-12T08:14:33.056Z,73.12
2019-05-12T08:15:29.760Z,73.12
2019-05-12T08:16:33.666Z,78.75
2019-05-12T08:17:30.741Z,78.75
2019-05-12T08:18:36.926Z,78.75
2019-05-12T08:19:30.721Z,84.38
2019-05-12T08:20:29.740Z,90.00
2019-05-12T08:21:34.912Z,84.38
2019-05-12T08:22:30.688Z,84.38
2019-05-12T08:23:29.683Z,78.75
2019-05-12T08:24:29.681Z,78.75
2019-05-12T08:25:29.696Z,78.75
2019-05-12T08:26:29.640Z,78.75
2019-05-12T08:27:29.654Z,73.12
2019-05-12T08:28:35.896Z,78.75
2019-05-12T08:29:30.637Z,61.88
2019-05-12T08:30:29.628Z,61.88
2019-05-12T08:31:34.167Z,67.50
2019-05-12T08:32:30.577Z,56.25
2019-05-12T08:33:29.572Z,50.62
2019-05-12T08:34:29.572Z,45.00
2019-05-12T08:35:34.605Z,45.00
2019-05-12T08:36:30.550Z,45.00
2019-05-12T08:37:29.543Z,45.00
2019-05-12T08:38:29.512Z,50.62
2019-05-12T08:39:29.506Z,61.88
2019-05-12T08:40:29.528Z,67.50
2019-05-12T08:41:29.493Z,67.50
2019-05-12T08:42:29.468Z,73.12
2019-05-12T08:43:29.467Z,73.12
2019-05-12T08:44:33.838Z,73.12
2019-05-12T08:45:36.505Z,73.12
2019-05-12T08:46:30.641Z,67.50
2019-05-12T08:47:37.149Z,61.88
2019-05-12T08:48:30.399Z,67.50
2019-05-12T08:49:34.072Z,61.88
2019-05-12T08:50:31.614Z,67.50
2019-05-12T08:51:29.373Z,78.75
2019-05-12T08:52:30.771Z,73.12
2019-05-12T08:53:30.344Z,84.38
2019-05-12T08:54:29.339Z,84.38
2019-05-12T08:55:31.438Z,84.38
2019-05-12T08:56:29.316Z,78.75
2019-05-12T08:57:34.928Z,78.75
2019-05-12T08:58:39.266Z,73.12
2019-05-12T08:59:30.287Z,67.50
2019-05-12T09:00:29.274Z,61.88
2019-05-12T09:01:30.838Z,61.88
2019-05-12T09:02:29.250Z,61.88
2019-05-12T09:03:30.547Z,61.88
2019-05-12T09:04:29.225Z,56.25
2019-05-12T09:05:34.517Z,67.50
2019-05-12T09:06:30.238Z,61.88
2019-05-12T09:07:30.394Z,50.62
2019-05-12T09:08:30.193Z,50.62
2019-05-12T09:09:29.203Z,45.00
2019-05-12T09:10:29.194Z,50.62
2019-05-12T09:11:29.148Z,50.62
2019-05-12T09:12:29.142Z,50.62
2019-05-12T09:13:29.134Z,56.25
2019-05-12T09:14:33.541Z,45.00
2019-05-12T09:15:30.144Z,56.25
2019-05-12T09:16:29.106Z,56.25
2019-05-12T09:17:29.089Z,56.25
2019-05-12T09:18:35.271Z,56.25
2019-05-12T09:19:30.087Z,61.88
2019-05-12T09:20:29.061Z,61.88
2019-05-12T09:21:31.730Z,61.88
2019-05-12T09:22:30.040Z,61.88
2019-05-12T09:23:32.703Z,61.88
2019-05-12T09:24:30.017Z,56.25
2019-05-12T09:25:28.997Z,61.88
2019-05-12T09:26:29.009Z,61.88
2019-05-12T09:27:28.997Z,61.88
2019-05-12T09:28:28.964Z,61.88
2019-05-12T09:29:28.960Z,61.88
2019-05-12T09:30:28.951Z,67.50
2019-05-12T09:31:29.603Z,73.12
2019-05-12T09:32:28.922Z,73.12
2019-05-12T09:33:31.977Z,67.50
2019-05-12T09:34:29.898Z,67.50
2019-05-12T09:35:34.890Z,67.50
2019-05-12T09:36:29.897Z,67.50
2019-05-12T09:37:30.937Z,61.88
2019-05-12T09:38:29.853Z,50.62
2019-05-12T09:39:36.436Z,61.88
2019-05-12T09:40:29.835Z,61.88
2019-05-12T09:41:28.872Z,67.50
2019-05-12T09:42:30.201Z,67.50
2019-05-12T09:43:28.806Z,73.12
2019-05-12T09:44:30.613Z,73.12
2019-05-12T09:45:28.778Z,73.12
2019-05-12T09:46:34.292Z,73.12
2019-05-12T09:47:29.979Z,73.12
2019-05-12T09:48:28.751Z,61.88
2019-05-12T09:49:39.058Z,67.50
2019-05-12T09:50:29.722Z,67.50
2019-05-12T09:51:32.923Z,61.88
2019-05-12T09:52:29.721Z,56.25
2019-05-12T09:53:28.720Z,50.62
2019-05-12T09:54:35.412Z,50.62
2019-05-12T09:55:29.672Z,50.62
2019-05-12T09:56:28.700Z,50.62
2019-05-12T09:57:37.771Z,61.88
2019-05-12T09:58:29.635Z,56.25
2019-05-12T09:59:28.625Z,67.50
2019-05-12T10:00:30.436Z,61.88
2019-05-12T10:01:37.318Z,73.12
2019-05-12T10:02:29.601Z,73.12
2019-05-12T10:03:30.750Z,73.12
2019-05-12T10:04:29.581Z,73.12
2019-05-12T10:05:30.674Z,73.12
2019-05-12T10:06:29.574Z,73.12
2019-05-12T10:07:28.540Z,73.12
2019-05-12T10:08:29.217Z,73.12
2019-05-12T10:09:29.524Z,73.12
2019-05-12T10:10:29.085Z,73.12
2019-05-12T10:11:29.523Z,78.75
2019-05-12T10:12:29.898Z,73.12
2019-05-12T10:13:30.190Z,73.12
2019-05-12T10:14:28.473Z,67.50
2019-05-12T10:15:28.771Z,73.12
2019-05-12T10:16:28.443Z,67.50
2019-05-12T10:17:30.160Z,67.50
2019-05-12T10:18:28.441Z,61.88
2019-05-12T10:19:28.418Z,50.62
2019-05-12T10:20:29.134Z,50.62
2019-05-12T10:21:29.428Z,50.62
2019-05-12T10:22:30.026Z,45.00
2019-05-12T10:23:29.386Z,45.00
2019-05-12T10:24:32.588Z,45.00
2019-05-12T10:25:30.732Z,45.00
2019-05-12T10:26:28.331Z,45.00
2019-05-12T10:27:31.964Z,45.00
2019-05-12T10:28:29.324Z,50.62
2019-05-12T10:29:30.689Z,50.62
2019-05-12T10:30:28.288Z,50.62
2019-05-12T10:31:29.729Z,56.25
2019-05-12T10:32:29.259Z,50.62
2019-05-12T10:33:28.255Z,50.62
2019-05-12T10:34:29.286Z,56.25
2019-05-12T10:35:29.229Z,56.25
2019-05-12T10:36:28.221Z,56.25
2019-05-12T10:37:29.482Z,61.88
2019-05-12T10:38:28.197Z,61.88
2019-05-12T10:39:28.202Z,67.50
2019-05-12T10:40:28.174Z,67.50
2019-05-12T10:41:28.240Z,67.50
2019-05-12T10:42:28.154Z,73.12
2019-05-12T10:43:28.142Z,73.12
2019-05-12T10:44:30.056Z,84.38
2019-05-12T10:45:29.131Z,84.38
2019-05-12T10:46:28.750Z,84.38
2019-05-12T10:47:28.117Z,78.75
2019-05-12T10:48:28.086Z,73.12
2019-05-12T10:49:28.098Z,73.12
2019-05-12T10:50:28.077Z,73.12
2019-05-12T10:51:28.057Z,67.50
2019-05-12T10:52:29.550Z,67.50
2019-05-12T10:53:29.040Z,67.50
2019-05-12T10:54:28.035Z,73.12
2019-05-12T10:55:28.007Z,73.12
2019-05-12T10:56:28.017Z,67.50
2019-05-12T10:57:28.020Z,61.88
2019-05-12T10:58:27.993Z,61.88
2019-05-12T10:59:32.915Z,61.88
2019-05-12T11:00:28.958Z,56.25
2019-05-12T11:01:27.946Z,50.62
2019-05-12T11:02:30.428Z,50.62
2019-05-12T11:03:27.925Z,45.00
2019-05-12T11:04:35.691Z,45.00
2019-05-12T11:05:28.896Z,45.00
2019-05-12T11:06:27.889Z,45.00
2019-05-12T11:07:28.404Z,45.00
2019-05-12T11:08:27.903Z,50.62
2019-05-12T11:09:31.692Z,50.62
2019-05-12T11:10:28.870Z,50.62
2019-05-12T11:11:33.004Z,50.62
2019-05-12T11:12:29.228Z,50.62
2019-05-12T11:13:27.811Z,50.62
2019-05-12T11:14:30.495Z,45.00
2019-05-12T11:15:27.791Z,45.00
2019-05-12T11:16:31.080Z,45.00
2019-05-12T11:17:27.764Z,45.00
2019-05-12T11:18:30.506Z,50.62
2019-05-12T11:19:27.750Z,50.62
2019-05-12T11:20:27.755Z,50.62
2019-05-12T11:21:27.760Z,50.62
2019-05-12T11:22:27.735Z,50.62
2019-05-12T11:23:27.707Z,56.25
2019-05-12T11:24:27.690Z,56.25
2019-05-12T11:25:27.681Z,56.25
2019-05-12T11:26:27.697Z,61.88
2019-05-12T11:27:27.659Z,61.88
2019-05-12T11:28:27.657Z,67.50
2019-05-12T11:29:27.638Z,67.50
2019-05-12T11:30:27.642Z,67.50
2019-05-12T11:31:27.645Z,67.50
2019-05-12T11:32:28.955Z,61.88
2019-05-12T11:33:28.616Z,67.50
2019-05-12T11:34:27.589Z,67.50
2019-05-12T11:35:27.576Z,67.50
2019-05-12T11:36:27.577Z,73.12
2019-05-12T11:37:29.082Z,78.75
2019-05-12T11:38:27.545Z,78.75
2019-05-12T11:39:30.610Z,78.75
2019-05-12T11:40:28.518Z,73.12
2019-05-12T11:41:28.581Z,67.50
2019-05-12T11:42:27.496Z,67.50
2019-05-12T11:43:29.761Z,67.50
2019-05-12T11:44:27.474Z,73.12
2019-05-12T11:45:27.459Z,73.12
2019-05-12T11:46:27.507Z,73.12
2019-05-12T11:47:27.463Z,73.12
2019-05-12T11:48:27.426Z,67.50
2019-05-12T11:49:28.145Z,67.50
2019-05-12T11:50:27.432Z,67.50
2019-05-12T11:51:30.473Z,61.88
2019-05-12T11:52:27.386Z,67.50
2019-05-12T11:53:31.027Z,67.50
2019-05-12T11:54:28.076Z,67.50
2019-05-12T11:55:31.496Z,61.88
2019-05-12T11:56:27.337Z,67.50
2019-05-12T11:57:30.240Z,73.12
2019-05-12T11:58:27.324Z,67.50
2019-05-12T11:59:27.320Z,73.12
2019-05-12T12:00:27.324Z,73.12
2019-05-12T12:01:27.324Z,73.12
2019-05-12T12:02:30.423Z,78.75
2019-05-12T12:03:27.293Z,78.75
2019-05-12T12:04:27.254Z,78.75
2019-05-12T12:05:27.240Z,78.75
2019-05-12T12:06:27.247Z,90.00
2019-05-12T12:07:27.226Z,84.38
2019-05-12T12:08:35.648Z,73.12
2019-05-12T12:09:28.207Z,73.12
2019-05-12T12:10:29.187Z,73.12
2019-05-12T12:11:28.300Z,67.50
2019-05-12T12:12:27.161Z,61.88
2019-05-12T12:13:29.867Z,61.88
2019-05-12T12:14:27.151Z,56.25
2019-05-12T12:15:30.240Z,56.25
2019-05-12T12:16:27.154Z,50.62
2019-05-12T12:17:31.098Z,50.62
2019-05-12T12:18:28.098Z,50.62
2019-05-12T12:19:37.813Z,50.62
2019-05-12T12:20:28.074Z,50.62
2019-05-12T12:21:27.068Z,50.62
2019-05-12T12:22:29.887Z,56.25
2019-05-12T12:23:27.780Z,56.25
2019-05-12T12:24:31.288Z,56.25
2019-05-12T12:25:27.024Z,56.25
2019-05-12T12:26:30.200Z,56.25
2019-05-12T12:27:26.998Z,56.25
2019-05-12T12:28:27.035Z,56.25
2019-05-12T12:29:26.976Z,56.25
2019-05-12T12:30:26.972Z,56.25
2019-05-12T12:31:29.690Z,56.25
2019-05-12T12:32:27.947Z,56.25
2019-05-12T12:33:30.934Z,56.25
2019-05-12T12:34:30.120Z,56.25
2019-05-12T12:35:26.934Z,56.25
2019-05-12T12:36:26.905Z,56.25
2019-05-12T12:37:26.901Z,50.62
2019-05-12T12:38:26.898Z,50.62
2019-05-12T12:39:26.870Z,50.62
2019-05-12T12:40:28.815Z,45.00
2019-05-12T12:41:26.849Z,45.00
2019-05-12T12:42:30.388Z,50.62
2019-05-12T12:43:27.825Z,50.62
2019-05-12T12:44:26.824Z,50.62
2019-05-12T12:45:30.302Z,50.62
2019-05-12T12:46:27.795Z,50.62
2019-05-12T12:47:26.805Z,50.62
2019-05-12T12:48:29.694Z,61.88
2019-05-12T12:49:29.329Z,50.62
2019-05-12T12:50:30.529Z,61.88
2019-05-12T12:51:26.756Z,67.50
2019-05-12T12:52:26.749Z,67.50
2019-05-12T12:53:27.685Z,73.12
2019-05-12T12:54:26.727Z,67.50
2019-05-12T12:55:26.697Z,73.12
2019-05-12T12:56:30.103Z,73.12
2019-05-12T12:57:26.690Z,73.12
2019-05-12T12:58:31.133Z,73.12
2019-05-12T12:59:27.648Z,73.12
2019-05-12T13:00:32.139Z,67.50